sensor_id;sensor_type;location;lat;lon;timestamp;temperature;humidity
19214;DHT22;9741;51.020;5.304;2023-03-07T00:00:17;6.60;62.00
19214;DHT22;9741;51.020;5.304;2023-03-07T00:02:49;6.60;62.00
19214;DHT22;9741;51.020;5.304;2023-03-07T00:05:17;6.60;62.10
19214;DHT22;9741;51.020;5.304;2023-03-07T00:07:46;6.60;62.10
19214;DHT22;9741;51.020;5.304;2023-03-07T00:10:13;6.70;62.20
19214;DHT22;9741;51.020;5.304;2023-03-07T00:12:41;6.60;62.10
19214;DHT22;9741;51.020;5.304;2023-03-07T00:15:09;6.70;62.20
19214;DHT22;9741;51.020;5.304;2023-03-07T00:17:37;6.70;62.10
19214;DHT22;9741;51.020;5.304;2023-03-07T00:20:06;6.70;62.20
19214;DHT22;9741;51.020;5.304;2023-03-07T00:22:35;6.60;62.20
19214;DHT22;9741;51.020;5.304;2023-03-07T00:25:05;6.70;62.20
19214;DHT22;9741;51.020;5.304;2023-03-07T00:27:33;6.70;62.30
19214;DHT22;9741;51.020;5.304;2023-03-07T00:30:00;6.60;62.30
19214;DHT22;9741;51.020;5.304;2023-03-07T00:32:29;6.60;62.30
19214;DHT22;9741;51.020;5.304;2023-03-07T00:34:58;6.60;62.30
19214;DHT22;9741;51.020;5.304;2023-03-07T00:37:25;6.60;62.30
19214;DHT22;9741;51.020;5.304;2023-03-07T00:39:55;6.60;62.40
19214;DHT22;9741;51.020;5.304;2023-03-07T00:42:24;6.60;62.40
19214;DHT22;9741;51.020;5.304;2023-03-07T00:44:51;6.60;62.50
19214;DHT22;9741;51.020;5.304;2023-03-07T00:47:19;6.60;62.50
19214;DHT22;9741;51.020;5.304;2023-03-07T00:49:46;6.60;62.50
19214;DHT22;9741;51.020;5.304;2023-03-07T00:52:14;6.60;62.50
19214;DHT22;9741;51.020;5.304;2023-03-07T00:54:41;6.60;62.50
19214;DHT22;9741;51.020;5.304;2023-03-07T00:57:08;6.60;62.60
19214;DHT22;9741;51.020;5.304;2023-03-07T00:59:37;6.60;62.50
19214;DHT22;9741;51.020;5.304;2023-03-07T01:02:05;6.60;62.60
19214;DHT22;9741;51.020;5.304;2023-03-07T01:04:32;6.60;62.60
19214;DHT22;9741;51.020;5.304;2023-03-07T01:07:00;6.50;62.60
19214;DHT22;9741;51.020;5.304;2023-03-07T01:09:27;6.60;62.70
19214;DHT22;9741;51.020;5.304;2023-03-07T01:11:55;6.50;62.70
19214;DHT22;9741;51.020;5.304;2023-03-07T01:14:22;6.60;62.70
19214;DHT22;9741;51.020;5.304;2023-03-07T01:16:51;6.50;62.70
19214;DHT22;9741;51.020;5.304;2023-03-07T01:19:18;6.50;62.70
19214;DHT22;9741;51.020;5.304;2023-03-07T01:21:46;6.50;62.70
19214;DHT22;9741;51.020;5.304;2023-03-07T01:24:14;6.50;62.80
19214;DHT22;9741;51.020;5.304;2023-03-07T01:26:42;6.50;62.90
19214;DHT22;9741;51.020;5.304;2023-03-07T01:29:10;6.50;62.80
19214;DHT22;9741;51.020;5.304;2023-03-07T01:31:37;6.50;63.40
19214;DHT22;9741;51.020;5.304;2023-03-07T01:34:07;6.50;62.80
19214;DHT22;9741;51.020;5.304;2023-03-07T01:36:35;6.50;62.80
19214;DHT22;9741;51.020;5.304;2023-03-07T01:39:05;6.50;62.90
19214;DHT22;9741;51.020;5.304;2023-03-07T01:41:33;6.50;62.90
19214;DHT22;9741;51.020;5.304;2023-03-07T01:44:02;6.50;62.90
19214;DHT22;9741;51.020;5.304;2023-03-07T01:46:36;6.50;63.00
19214;DHT22;9741;51.020;5.304;2023-03-07T01:49:09;6.50;62.90
19214;DHT22;9741;51.020;5.304;2023-03-07T01:51:39;6.50;62.90
19214;DHT22;9741;51.020;5.304;2023-03-07T01:54:09;6.50;62.90
19214;DHT22;9741;51.020;5.304;2023-03-07T01:56:37;6.50;63.50
19214;DHT22;9741;51.020;5.304;2023-03-07T01:59:06;6.50;63.00
19214;DHT22;9741;51.020;5.304;2023-03-07T02:01:35;6.50;63.00
19214;DHT22;9741;51.020;5.304;2023-03-07T02:04:11;6.50;63.10
19214;DHT22;9741;51.020;5.304;2023-03-07T02:06:41;6.50;63.10
19214;DHT22;9741;51.020;5.304;2023-03-07T02:09:12;6.50;63.10
19214;DHT22;9741;51.020;5.304;2023-03-07T02:11:42;6.50;63.10
19214;DHT22;9741;51.020;5.304;2023-03-07T02:14:10;6.50;63.10
19214;DHT22;9741;51.020;5.304;2023-03-07T02:16:38;6.50;63.10
19214;DHT22;9741;51.020;5.304;2023-03-07T02:19:19;6.50;63.10
19214;DHT22;9741;51.020;5.304;2023-03-07T02:21:53;6.50;63.10
19214;DHT22;9741;51.020;5.304;2023-03-07T02:24:30;6.50;63.10
19214;DHT22;9741;51.020;5.304;2023-03-07T02:27:00;6.50;63.20
19214;DHT22;9741;51.020;5.304;2023-03-07T02:29:27;6.50;63.20
19214;DHT22;9741;51.020;5.304;2023-03-07T02:31:55;6.50;63.30
19214;DHT22;9741;51.020;5.304;2023-03-07T02:34:24;6.50;63.30
19214;DHT22;9741;51.020;5.304;2023-03-07T02:36:55;6.50;63.30
19214;DHT22;9741;51.020;5.304;2023-03-07T02:39:25;6.50;63.30
19214;DHT22;9741;51.020;5.304;2023-03-07T02:41:55;6.50;63.40
19214;DHT22;9741;51.020;5.304;2023-03-07T02:44:26;6.50;63.40
19214;DHT22;9741;51.020;5.304;2023-03-07T02:46:53;6.50;63.40
19214;DHT22;9741;51.020;5.304;2023-03-07T02:49:21;6.40;63.30
19214;DHT22;9741;51.020;5.304;2023-03-07T02:51:54;6.40;63.30
19214;DHT22;9741;51.020;5.304;2023-03-07T02:54:25;6.40;63.40
19214;DHT22;9741;51.020;5.304;2023-03-07T02:56:53;6.40;63.40
19214;DHT22;9741;51.020;5.304;2023-03-07T02:59:20;6.40;63.40
19214;DHT22;9741;51.020;5.304;2023-03-07T03:01:49;6.40;63.40
19214;DHT22;9741;51.020;5.304;2023-03-07T03:04:17;6.40;63.50
19214;DHT22;9741;51.020;5.304;2023-03-07T03:06:45;6.40;63.50
19214;DHT22;9741;51.020;5.304;2023-03-07T03:09:12;6.40;63.50
19214;DHT22;9741;51.020;5.304;2023-03-07T03:11:40;6.40;63.60
19214;DHT22;9741;51.020;5.304;2023-03-07T03:14:07;6.40;63.60
19214;DHT22;9741;51.020;5.304;2023-03-07T03:16:35;6.30;63.50
19214;DHT22;9741;51.020;5.304;2023-03-07T03:19:04;6.30;63.50
19214;DHT22;9741;51.020;5.304;2023-03-07T03:21:32;6.30;63.50
19214;DHT22;9741;51.020;5.304;2023-03-07T03:24:03;6.30;63.50
19214;DHT22;9741;51.020;5.304;2023-03-07T03:26:31;6.30;63.60
19214;DHT22;9741;51.020;5.304;2023-03-07T03:28:59;6.30;63.60
19214;DHT22;9741;51.020;5.304;2023-03-07T03:31:27;6.30;63.60
19214;DHT22;9741;51.020;5.304;2023-03-07T03:33:57;6.30;63.70
19214;DHT22;9741;51.020;5.304;2023-03-07T03:36:26;6.30;63.70
19214;DHT22;9741;51.020;5.304;2023-03-07T03:38:55;6.30;63.70
19214;DHT22;9741;51.020;5.304;2023-03-07T03:41:24;6.30;63.70
19214;DHT22;9741;51.020;5.304;2023-03-07T03:43:51;6.30;63.80
19214;DHT22;9741;51.020;5.304;2023-03-07T03:46:20;6.30;63.80
19214;DHT22;9741;51.020;5.304;2023-03-07T03:48:50;6.30;63.80
19214;DHT22;9741;51.020;5.304;2023-03-07T03:51:19;6.30;63.80
19214;DHT22;9741;51.020;5.304;2023-03-07T03:53:48;6.30;63.80
19214;DHT22;9741;51.020;5.304;2023-03-07T03:56:17;6.30;63.80
19214;DHT22;9741;51.020;5.304;2023-03-07T03:58:46;6.20;63.70
19214;DHT22;9741;51.020;5.304;2023-03-07T04:01:14;6.30;63.90
19214;DHT22;9741;51.020;5.304;2023-03-07T04:03:43;6.30;63.90
19214;DHT22;9741;51.020;5.304;2023-03-07T04:06:12;6.30;63.90
19214;DHT22;9741;51.020;5.304;2023-03-07T04:08:41;6.30;63.90
19214;DHT22;9741;51.020;5.304;2023-03-07T04:11:10;6.30;63.90
19214;DHT22;9741;51.020;5.304;2023-03-07T04:13:38;6.20;63.80
19214;DHT22;9741;51.020;5.304;2023-03-07T04:16:06;6.30;64.00
19214;DHT22;9741;51.020;5.304;2023-03-07T04:18:34;6.20;64.40
19214;DHT22;9741;51.020;5.304;2023-03-07T04:21:02;6.30;64.00
19214;DHT22;9741;51.020;5.304;2023-03-07T04:23:31;6.30;64.20
19214;DHT22;9741;51.020;5.304;2023-03-07T04:26:00;6.30;64.00
19214;DHT22;9741;51.020;5.304;2023-03-07T04:28:31;6.30;64.00
19214;DHT22;9741;51.020;5.304;2023-03-07T04:31:09;6.30;64.00
19214;DHT22;9741;51.020;5.304;2023-03-07T04:33:36;6.30;64.00
19214;DHT22;9741;51.020;5.304;2023-03-07T04:36:04;6.30;64.00
19214;DHT22;9741;51.020;5.304;2023-03-07T04:38:32;6.30;64.00
19214;DHT22;9741;51.020;5.304;2023-03-07T04:40:59;6.30;64.00
19214;DHT22;9741;51.020;5.304;2023-03-07T04:43:28;6.30;64.00
19214;DHT22;9741;51.020;5.304;2023-03-07T04:45:56;6.30;64.00
19214;DHT22;9741;51.020;5.304;2023-03-07T04:48:23;6.30;64.00
19214;DHT22;9741;51.020;5.304;2023-03-07T04:50:51;6.30;64.00
19214;DHT22;9741;51.020;5.304;2023-03-07T04:53:19;6.30;64.00
19214;DHT22;9741;51.020;5.304;2023-03-07T04:55:46;6.30;64.00
19214;DHT22;9741;51.020;5.304;2023-03-07T04:58:14;6.30;64.00
19214;DHT22;9741;51.020;5.304;2023-03-07T05:00:44;6.20;64.00
19214;DHT22;9741;51.020;5.304;2023-03-07T05:03:12;6.20;64.00
19214;DHT22;9741;51.020;5.304;2023-03-07T05:05:40;6.30;64.10
19214;DHT22;9741;51.020;5.304;2023-03-07T05:08:08;6.30;64.10
19214;DHT22;9741;51.020;5.304;2023-03-07T05:10:36;6.20;64.10
19214;DHT22;9741;51.020;5.304;2023-03-07T05:13:03;6.30;64.20
19214;DHT22;9741;51.020;5.304;2023-03-07T05:15:31;6.20;64.10
19214;DHT22;9741;51.020;5.304;2023-03-07T05:18:00;6.30;64.20
19214;DHT22;9741;51.020;5.304;2023-03-07T05:20:27;6.30;64.20
19214;DHT22;9741;51.020;5.304;2023-03-07T05:22:56;6.20;64.10
19214;DHT22;9741;51.020;5.304;2023-03-07T05:25:23;6.30;64.20
19214;DHT22;9741;51.020;5.304;2023-03-07T05:27:51;6.20;64.10
19214;DHT22;9741;51.020;5.304;2023-03-07T05:30:18;6.30;64.20
19214;DHT22;9741;51.020;5.304;2023-03-07T05:32:47;6.20;64.70
19214;DHT22;9741;51.020;5.304;2023-03-07T05:35:17;6.20;64.20
19214;DHT22;9741;51.020;5.304;2023-03-07T05:37:45;6.30;64.20
19214;DHT22;9741;51.020;5.304;2023-03-07T05:40:13;6.20;64.20
19214;DHT22;9741;51.020;5.304;2023-03-07T05:42:41;6.20;64.20
19214;DHT22;9741;51.020;5.304;2023-03-07T05:45:09;6.20;64.20
19214;DHT22;9741;51.020;5.304;2023-03-07T05:47:37;6.20;64.20
19214;DHT22;9741;51.020;5.304;2023-03-07T05:50:06;6.20;64.30
19214;DHT22;9741;51.020;5.304;2023-03-07T05:52:35;6.20;64.30
19214;DHT22;9741;51.020;5.304;2023-03-07T05:55:03;6.20;64.30
19214;DHT22;9741;51.020;5.304;2023-03-07T05:57:30;6.20;64.30
19214;DHT22;9741;51.020;5.304;2023-03-07T05:59:58;6.20;64.40
19214;DHT22;9741;51.020;5.304;2023-03-07T06:02:25;6.20;64.40
19214;DHT22;9741;51.020;5.304;2023-03-07T06:04:53;6.20;64.40
19214;DHT22;9741;51.020;5.304;2023-03-07T06:07:20;6.20;64.40
19214;DHT22;9741;51.020;5.304;2023-03-07T06:09:53;6.20;64.40
19214;DHT22;9741;51.020;5.304;2023-03-07T06:12:21;6.20;64.40
19214;DHT22;9741;51.020;5.304;2023-03-07T06:14:48;6.20;64.40
19214;DHT22;9741;51.020;5.304;2023-03-07T06:17:16;6.20;64.40
19214;DHT22;9741;51.020;5.304;2023-03-07T06:19:46;6.30;64.40
19214;DHT22;9741;51.020;5.304;2023-03-07T06:22:13;6.20;64.40
19214;DHT22;9741;51.020;5.304;2023-03-07T06:24:41;6.20;64.40
19214;DHT22;9741;51.020;5.304;2023-03-07T06:27:10;6.20;64.40
19214;DHT22;9741;51.020;5.304;2023-03-07T06:29:37;6.20;64.40
19214;DHT22;9741;51.020;5.304;2023-03-07T06:32:04;6.20;64.40
19214;DHT22;9741;51.020;5.304;2023-03-07T06:34:32;6.20;64.40
19214;DHT22;9741;51.020;5.304;2023-03-07T06:36:59;6.20;64.40
19214;DHT22;9741;51.020;5.304;2023-03-07T06:39:26;6.20;64.40
19214;DHT22;9741;51.020;5.304;2023-03-07T06:41:54;6.20;64.40
19214;DHT22;9741;51.020;5.304;2023-03-07T06:44:24;6.30;64.50
19214;DHT22;9741;51.020;5.304;2023-03-07T06:46:52;6.20;64.40
19214;DHT22;9741;51.020;5.304;2023-03-07T06:49:19;6.30;64.50
19214;DHT22;9741;51.020;5.304;2023-03-07T06:51:47;6.30;64.50
19214;DHT22;9741;51.020;5.304;2023-03-07T06:54:15;6.30;64.50
19214;DHT22;9741;51.020;5.304;2023-03-07T06:56:42;6.30;64.50
19214;DHT22;9741;51.020;5.304;2023-03-07T06:59:09;6.30;64.50
19214;DHT22;9741;51.020;5.304;2023-03-07T07:01:38;6.40;64.60
19214;DHT22;9741;51.020;5.304;2023-03-07T07:04:06;6.40;64.50
19214;DHT22;9741;51.020;5.304;2023-03-07T07:06:33;6.40;64.60
19214;DHT22;9741;51.020;5.304;2023-03-07T07:09:00;6.40;65.10
19214;DHT22;9741;51.020;5.304;2023-03-07T07:11:27;6.50;64.60
19214;DHT22;9741;51.020;5.304;2023-03-07T07:13:54;6.50;64.60
19214;DHT22;9741;51.020;5.304;2023-03-07T07:16:21;6.50;64.60
19214;DHT22;9741;51.020;5.304;2023-03-07T07:18:50;6.60;64.60
19214;DHT22;9741;51.020;5.304;2023-03-07T07:21:18;6.60;64.60
19214;DHT22;9741;51.020;5.304;2023-03-07T07:23:45;6.70;64.60
19214;DHT22;9741;51.020;5.304;2023-03-07T07:26:13;6.70;64.40
19214;DHT22;9741;51.020;5.304;2023-03-07T07:28:40;6.70;64.40
19214;DHT22;9741;51.020;5.304;2023-03-07T07:31:07;6.70;64.30
19214;DHT22;9741;51.020;5.304;2023-03-07T07:33:34;6.70;64.30
19214;DHT22;9741;51.020;5.304;2023-03-07T07:36:03;6.70;64.30
19214;DHT22;9741;51.020;5.304;2023-03-07T07:38:30;6.70;64.20
19214;DHT22;9741;51.020;5.304;2023-03-07T07:40:57;6.70;64.30
19214;DHT22;9741;51.020;5.304;2023-03-07T07:43:27;6.70;64.30
19214;DHT22;9741;51.020;5.304;2023-03-07T07:45:55;6.70;64.30
19214;DHT22;9741;51.020;5.304;2023-03-07T07:48:23;6.70;64.30
19214;DHT22;9741;51.020;5.304;2023-03-07T07:50:52;6.70;64.30
19214;DHT22;9741;51.020;5.304;2023-03-07T07:53:21;6.80;64.40
19214;DHT22;9741;51.020;5.304;2023-03-07T07:55:48;6.80;64.30
19214;DHT22;9741;51.020;5.304;2023-03-07T07:58:16;6.80;64.30
19214;DHT22;9741;51.020;5.304;2023-03-07T08:00:44;6.80;64.30
19214;DHT22;9741;51.020;5.304;2023-03-07T08:03:12;6.90;64.40
19214;DHT22;9741;51.020;5.304;2023-03-07T08:05:43;6.90;64.30
19214;DHT22;9741;51.020;5.304;2023-03-07T08:08:14;6.90;64.30
19214;DHT22;9741;51.020;5.304;2023-03-07T08:10:45;7.00;64.40
19214;DHT22;9741;51.020;5.304;2023-03-07T08:13:14;7.00;64.40
19214;DHT22;9741;51.020;5.304;2023-03-07T08:15:42;7.00;64.40
19214;DHT22;9741;51.020;5.304;2023-03-07T08:18:10;7.10;64.50
19214;DHT22;9741;51.020;5.304;2023-03-07T08:20:39;7.20;65.00
19214;DHT22;9741;51.020;5.304;2023-03-07T08:23:07;7.30;64.50
19214;DHT22;9741;51.020;5.304;2023-03-07T08:25:36;7.30;64.40
19214;DHT22;9741;51.020;5.304;2023-03-07T08:28:06;7.40;64.40
19214;DHT22;9741;51.020;5.304;2023-03-07T08:30:34;7.40;64.30
19214;DHT22;9741;51.020;5.304;2023-03-07T08:33:03;7.40;64.30
19214;DHT22;9741;51.020;5.304;2023-03-07T08:35:31;7.50;64.30
19214;DHT22;9741;51.020;5.304;2023-03-07T08:37:59;7.60;64.40
19214;DHT22;9741;51.020;5.304;2023-03-07T08:40:28;7.50;64.10
19214;DHT22;9741;51.020;5.304;2023-03-07T08:42:57;7.60;64.20
19214;DHT22;9741;51.020;5.304;2023-03-07T08:45:27;7.60;64.10
19214;DHT22;9741;51.020;5.304;2023-03-07T08:47:55;7.60;64.10
19214;DHT22;9741;51.020;5.304;2023-03-07T08:50:27;7.50;64.00
19214;DHT22;9741;51.020;5.304;2023-03-07T08:52:54;7.50;64.00
19214;DHT22;9741;51.020;5.304;2023-03-07T08:55:22;7.50;64.10
19214;DHT22;9741;51.020;5.304;2023-03-07T08:57:52;7.50;64.10
19214;DHT22;9741;51.020;5.304;2023-03-07T09:00:20;7.50;64.10
19214;DHT22;9741;51.020;5.304;2023-03-07T09:02:49;7.50;64.10
19214;DHT22;9741;51.020;5.304;2023-03-07T09:05:16;7.50;64.10
19214;DHT22;9741;51.020;5.304;2023-03-07T09:07:43;7.50;64.00
19214;DHT22;9741;51.020;5.304;2023-03-07T09:10:11;7.50;63.90
19214;DHT22;9741;51.020;5.304;2023-03-07T09:12:42;7.50;64.00
19214;DHT22;9741;51.020;5.304;2023-03-07T09:15:10;7.50;63.90
19214;DHT22;9741;51.020;5.304;2023-03-07T09:17:39;7.40;63.80
19214;DHT22;9741;51.020;5.304;2023-03-07T09:20:16;7.50;63.90
19214;DHT22;9741;51.020;5.304;2023-03-07T09:22:46;7.40;63.80
19214;DHT22;9741;51.020;5.304;2023-03-07T09:25:13;7.40;63.80
19214;DHT22;9741;51.020;5.304;2023-03-07T09:27:41;7.40;63.90
19214;DHT22;9741;51.020;5.304;2023-03-07T09:30:11;7.40;63.90
19214;DHT22;9741;51.020;5.304;2023-03-07T09:32:39;7.30;63.80
19214;DHT22;9741;51.020;5.304;2023-03-07T09:35:07;7.40;63.90
19214;DHT22;9741;51.020;5.304;2023-03-07T09:37:36;7.40;63.90
19214;DHT22;9741;51.020;5.304;2023-03-07T09:40:06;7.30;63.80
19214;DHT22;9741;51.020;5.304;2023-03-07T09:42:54;7.30;63.90
19214;DHT22;9741;51.020;5.304;2023-03-07T09:45:34;7.20;63.70
19214;DHT22;9741;51.020;5.304;2023-03-07T09:48:28;7.20;63.60
19214;DHT22;9741;51.020;5.304;2023-03-07T09:51:12;7.10;63.60
19214;DHT22;9741;51.020;5.304;2023-03-07T09:53:48;7.10;63.70
19214;DHT22;9741;51.020;5.304;2023-03-07T09:56:22;7.10;63.80
19214;DHT22;9741;51.020;5.304;2023-03-07T09:58:55;7.10;63.70
19214;DHT22;9741;51.020;5.304;2023-03-07T10:01:26;7.10;63.60
19214;DHT22;9741;51.020;5.304;2023-03-07T10:03:59;7.10;63.60
19214;DHT22;9741;51.020;5.304;2023-03-07T10:06:37;7.20;63.70
19214;DHT22;9741;51.020;5.304;2023-03-07T10:09:22;7.20;63.70
19214;DHT22;9741;51.020;5.304;2023-03-07T10:12:25;7.30;63.70
19214;DHT22;9741;51.020;5.304;2023-03-07T10:15:17;7.40;63.70
19214;DHT22;9741;51.020;5.304;2023-03-07T10:20:47;7.50;63.50
19214;DHT22;9741;51.020;5.304;2023-03-07T10:23:52;7.50;63.40
19214;DHT22;9741;51.020;5.304;2023-03-07T10:26:30;7.40;63.20
19214;DHT22;9741;51.020;5.304;2023-03-07T10:29:14;7.40;63.30
19214;DHT22;9741;51.020;5.304;2023-03-07T10:31:48;7.40;63.40
19214;DHT22;9741;51.020;5.304;2023-03-07T10:34:23;7.30;63.20
19214;DHT22;9741;51.020;5.304;2023-03-07T10:36:53;7.30;63.30
19214;DHT22;9741;51.020;5.304;2023-03-07T10:39:29;7.40;63.50
19214;DHT22;9741;51.020;5.304;2023-03-07T10:42:02;7.50;63.70
19214;DHT22;9741;51.020;5.304;2023-03-07T10:44:32;7.60;63.70
19214;DHT22;9741;51.020;5.304;2023-03-07T10:47:00;7.70;63.60
19214;DHT22;9741;51.020;5.304;2023-03-07T10:49:30;7.70;63.40
19214;DHT22;9741;51.020;5.304;2023-03-07T10:52:04;7.80;63.40
19214;DHT22;9741;51.020;5.304;2023-03-07T10:54:35;7.80;63.30
19214;DHT22;9741;51.020;5.304;2023-03-07T10:57:06;7.80;63.30
19214;DHT22;9741;51.020;5.304;2023-03-07T10:59:35;7.80;63.40
19214;DHT22;9741;51.020;5.304;2023-03-07T11:02:33;7.90;63.40
19214;DHT22;9741;51.020;5.304;2023-03-07T11:05:19;8.00;63.50
19214;DHT22;9741;51.020;5.304;2023-03-07T11:07:49;8.10;63.50
19214;DHT22;9741;51.020;5.304;2023-03-07T11:10:33;8.20;63.50
19214;DHT22;9741;51.020;5.304;2023-03-07T11:13:13;8.50;63.80
19214;DHT22;9741;51.020;5.304;2023-03-07T11:15:41;8.70;63.80
19214;DHT22;9741;51.020;5.304;2023-03-07T11:18:25;8.90;63.60
19214;DHT22;9741;51.020;5.304;2023-03-07T11:20:53;9.00;63.20
19214;DHT22;9741;51.020;5.304;2023-03-07T11:23:22;9.00;62.80
19214;DHT22;9741;51.020;5.304;2023-03-07T11:25:54;9.00;62.80
19214;DHT22;9741;51.020;5.304;2023-03-07T11:28:30;9.00;62.80
19214;DHT22;9741;51.020;5.304;2023-03-07T11:31:07;9.00;62.80
19214;DHT22;9741;51.020;5.304;2023-03-07T11:33:50;9.00;62.80
19214;DHT22;9741;51.020;5.304;2023-03-07T11:36:24;9.00;62.60
19214;DHT22;9741;51.020;5.304;2023-03-07T11:39:00;8.90;62.50
19214;DHT22;9741;51.020;5.304;2023-03-07T11:41:30;8.80;62.40
19214;DHT22;9741;51.020;5.304;2023-03-07T11:44:15;8.70;62.40
19214;DHT22;9741;51.020;5.304;2023-03-07T11:47:01;8.60;62.30
19214;DHT22;9741;51.020;5.304;2023-03-07T11:49:42;8.50;62.30
19214;DHT22;9741;51.020;5.304;2023-03-07T11:52:22;8.40;62.40
19214;DHT22;9741;51.020;5.304;2023-03-07T11:55:00;8.30;62.30
19214;DHT22;9741;51.020;5.304;2023-03-07T11:57:41;8.20;62.30
19214;DHT22;9741;51.020;5.304;2023-03-07T12:00:24;8.10;62.40
19214;DHT22;9741;51.020;5.304;2023-03-07T12:06:00;8.00;62.60
19214;DHT22;9741;51.020;5.304;2023-03-07T12:08:39;7.80;62.10
19214;DHT22;9741;51.020;5.304;2023-03-07T12:11:30;7.70;62.20
19214;DHT22;9741;51.020;5.304;2023-03-07T12:14:11;7.50;62.00
19214;DHT22;9741;51.020;5.304;2023-03-07T12:16:56;7.40;62.30
19214;DHT22;9741;51.020;5.304;2023-03-07T12:19:50;7.40;62.50
19214;DHT22;9741;51.020;5.304;2023-03-07T12:22:25;7.40;62.50
19214;DHT22;9741;51.020;5.304;2023-03-07T12:25:18;7.40;62.40
19214;DHT22;9741;51.020;5.304;2023-03-07T12:27:57;7.50;62.40
19214;DHT22;9741;51.020;5.304;2023-03-07T12:30:37;7.50;62.30
19214;DHT22;9741;51.020;5.304;2023-03-07T12:33:20;7.40;62.20
19214;DHT22;9741;51.020;5.304;2023-03-07T12:36:05;7.50;62.40
19214;DHT22;9741;51.020;5.304;2023-03-07T12:38:39;7.50;62.30
19214;DHT22;9741;51.020;5.304;2023-03-07T12:41:21;7.50;62.20
19214;DHT22;9741;51.020;5.304;2023-03-07T12:43:53;7.50;62.30
19214;DHT22;9741;51.020;5.304;2023-03-07T12:46:30;7.60;62.40
19214;DHT22;9741;51.020;5.304;2023-03-07T12:49:12;7.60;62.40
19214;DHT22;9741;51.020;5.304;2023-03-07T12:51:49;7.60;62.20
19214;DHT22;9741;51.020;5.304;2023-03-07T12:54:28;7.60;62.10
19214;DHT22;9741;51.020;5.304;2023-03-07T12:57:02;7.60;62.10
19214;DHT22;9741;51.020;5.304;2023-03-07T12:59:38;7.60;62.10
19214;DHT22;9741;51.020;5.304;2023-03-07T13:02:12;7.60;62.60
19214;DHT22;9741;51.020;5.304;2023-03-07T13:04:46;7.60;62.10
19214;DHT22;9741;51.020;5.304;2023-03-07T13:07:15;7.60;62.10
19214;DHT22;9741;51.020;5.304;2023-03-07T13:09:46;7.70;62.10
19214;DHT22;9741;51.020;5.304;2023-03-07T13:12:28;7.70;62.00
19214;DHT22;9741;51.020;5.304;2023-03-07T13:14:57;7.70;61.90
19214;DHT22;9741;51.020;5.304;2023-03-07T13:18:08;7.70;61.80
19214;DHT22;9741;51.020;5.304;2023-03-07T13:23:47;7.70;61.90
19214;DHT22;9741;51.020;5.304;2023-03-07T13:26:24;7.70;61.90
19214;DHT22;9741;51.020;5.304;2023-03-07T13:28:51;7.70;61.90
19214;DHT22;9741;51.020;5.304;2023-03-07T13:31:42;7.80;62.10
19214;DHT22;9741;51.020;5.304;2023-03-07T13:40:54;8.10;61.90
19214;DHT22;9741;51.020;5.304;2023-03-07T13:46:52;8.20;61.80
19214;DHT22;9741;51.020;5.304;2023-03-07T13:49:57;8.20;61.70
19214;DHT22;9741;51.020;5.304;2023-03-07T13:52:40;8.20;61.70
19214;DHT22;9741;51.020;5.304;2023-03-07T13:55:29;8.20;61.50
19214;DHT22;9741;51.020;5.304;2023-03-07T13:58:11;8.20;61.50
19214;DHT22;9741;51.020;5.304;2023-03-07T14:00:50;8.10;61.50
19214;DHT22;9741;51.020;5.304;2023-03-07T14:03:30;8.20;61.60
19214;DHT22;9741;51.020;5.304;2023-03-07T14:06:10;8.20;61.60
19214;DHT22;9741;51.020;5.304;2023-03-07T14:08:40;8.20;61.50
19214;DHT22;9741;51.020;5.304;2023-03-07T14:11:17;8.20;61.40
19214;DHT22;9741;51.020;5.304;2023-03-07T14:14:03;8.20;61.40
19214;DHT22;9741;51.020;5.304;2023-03-07T14:16:50;8.20;61.30
19214;DHT22;9741;51.020;5.304;2023-03-07T14:19:35;8.10;61.30
19214;DHT22;9741;51.020;5.304;2023-03-07T14:22:20;8.00;61.20
19214;DHT22;9741;51.020;5.304;2023-03-07T14:25:00;7.90;61.40
19214;DHT22;9741;51.020;5.304;2023-03-07T14:27:50;7.90;61.40
19214;DHT22;9741;51.020;5.304;2023-03-07T14:30:21;7.90;61.50
19214;DHT22;9741;51.020;5.304;2023-03-07T14:32:50;7.90;61.40
19214;DHT22;9741;51.020;5.304;2023-03-07T14:35:33;7.90;61.50
19214;DHT22;9741;51.020;5.304;2023-03-07T14:38:06;7.90;61.40
19214;DHT22;9741;51.020;5.304;2023-03-07T14:40:44;7.80;61.30
19214;DHT22;9741;51.020;5.304;2023-03-07T14:43:36;7.80;61.40
19214;DHT22;9741;51.020;5.304;2023-03-07T14:46:15;7.70;61.30
19214;DHT22;9741;51.020;5.304;2023-03-07T14:48:58;7.70;61.30
19214;DHT22;9741;51.020;5.304;2023-03-07T14:51:28;7.60;61.40
19214;DHT22;9741;51.020;5.304;2023-03-07T14:54:04;7.60;61.40
19214;DHT22;9741;51.020;5.304;2023-03-07T14:56:36;7.50;61.40
19214;DHT22;9741;51.020;5.304;2023-03-07T14:59:05;7.50;61.50
19214;DHT22;9741;51.020;5.304;2023-03-07T15:01:36;7.50;61.40
19214;DHT22;9741;51.020;5.304;2023-03-07T15:04:18;7.40;61.30
19214;DHT22;9741;51.020;5.304;2023-03-07T15:06:55;7.40;61.40
19214;DHT22;9741;51.020;5.304;2023-03-07T15:09:27;7.40;61.40
19214;DHT22;9741;51.020;5.304;2023-03-07T15:11:59;7.40;61.40
19214;DHT22;9741;51.020;5.304;2023-03-07T15:14:39;7.40;61.50
19214;DHT22;9741;51.020;5.304;2023-03-07T15:17:14;7.40;61.50
19214;DHT22;9741;51.020;5.304;2023-03-07T15:19:52;7.40;61.60
19214;DHT22;9741;51.020;5.304;2023-03-07T15:22:25;7.40;61.70
19214;DHT22;9741;51.020;5.304;2023-03-07T15:24:58;7.30;61.50
19214;DHT22;9741;51.020;5.304;2023-03-07T15:27:27;7.30;61.60
19214;DHT22;9741;51.020;5.304;2023-03-07T15:29:57;7.30;61.60
19214;DHT22;9741;51.020;5.304;2023-03-07T15:32:31;7.30;61.60
19214;DHT22;9741;51.020;5.304;2023-03-07T15:35:00;7.30;61.60
19214;DHT22;9741;51.020;5.304;2023-03-07T15:37:40;7.30;61.60
19214;DHT22;9741;51.020;5.304;2023-03-07T15:40:25;7.20;61.50
19214;DHT22;9741;51.020;5.304;2023-03-07T15:42:55;7.20;61.50
19214;DHT22;9741;51.020;5.304;2023-03-07T15:45:28;7.10;61.60
19214;DHT22;9741;51.020;5.304;2023-03-07T15:47:58;7.10;61.60
19214;DHT22;9741;51.020;5.304;2023-03-07T15:50:27;7.00;61.50
19214;DHT22;9741;51.020;5.304;2023-03-07T15:52:59;7.00;61.60
19214;DHT22;9741;51.020;5.304;2023-03-07T15:55:30;6.90;61.60
19214;DHT22;9741;51.020;5.304;2023-03-07T15:57:59;6.90;61.70
19214;DHT22;9741;51.020;5.304;2023-03-07T16:00:32;6.80;61.60
19214;DHT22;9741;51.020;5.304;2023-03-07T16:03:25;6.70;61.70
19214;DHT22;9741;51.020;5.304;2023-03-07T16:05:54;6.70;61.70
19214;DHT22;9741;51.020;5.304;2023-03-07T16:08:22;6.60;61.70
19214;DHT22;9741;51.020;5.304;2023-03-07T16:10:56;6.50;61.80
19214;DHT22;9741;51.020;5.304;2023-03-07T16:13:28;6.50;61.90
19214;DHT22;9741;51.020;5.304;2023-03-07T16:16:05;6.40;61.80
19214;DHT22;9741;51.020;5.304;2023-03-07T16:18:41;6.40;61.90
19214;DHT22;9741;51.020;5.304;2023-03-07T16:21:11;6.30;61.80
19214;DHT22;9741;51.020;5.304;2023-03-07T16:23:39;6.30;61.90
19214;DHT22;9741;51.020;5.304;2023-03-07T16:26:12;6.20;61.80
19214;DHT22;9741;51.020;5.304;2023-03-07T16:28:41;6.10;61.90
19214;DHT22;9741;51.020;5.304;2023-03-07T16:31:10;6.10;62.10
19214;DHT22;9741;51.020;5.304;2023-03-07T16:33:40;6.10;62.10
19214;DHT22;9741;51.020;5.304;2023-03-07T16:36:11;6.10;62.10
19214;DHT22;9741;51.020;5.304;2023-03-07T16:39:04;6.10;62.10
19214;DHT22;9741;51.020;5.304;2023-03-07T16:41:35;6.00;62.10
19214;DHT22;9741;51.020;5.304;2023-03-07T16:44:05;6.00;62.10
19214;DHT22;9741;51.020;5.304;2023-03-07T16:46:33;6.00;62.20
19214;DHT22;9741;51.020;5.304;2023-03-07T16:49:03;6.00;62.30
19214;DHT22;9741;51.020;5.304;2023-03-07T16:51:34;6.00;62.30